Time;durP1;ratioP1;P1;durP2;ratioP2;P2;SDS_P1;SDS_P2;PMS_P1;PMS_P2;Temp;Humidity;BMP_temperature;BMP_pressure;BME280_temperature;BME280_humidity;BME280_pressure;Samples;Min_cycle;Max_cycle;Signal;HPM_P1;HPM_P2
2024/03/09 00:02:26;;;;;;;2.40;1.90;;;;;;;;;;4868536;29;20055;-76
2024/03/09 00:04:59;;;;;;;3.17;1.75;;;;;;;;;;4869361;29;20060;-75
2024/03/09 00:07:30;;;;;;;2.50;2.00;;;;;;;;;;4870276;29;20053;-75
2024/03/09 00:10:00;;;;;;;4.55;1.63;;;;;;;;;;4870057;29;20075;-78
2024/03/09 00:12:33;;;;;;;5.22;1.83;;;;;;;;;;4871664;29;20547;-77
2024/03/09 00:15:06;;;;;;;5.43;1.90;;;;;;;;;;4872147;29;20041;-78
2024/03/09 00:17:39;;;;;;;5.75;1.80;;;;;;;;;;4872364;29;20531;-75
2024/03/09 00:20:47;;;;;;;3.35;1.83;;;;;;;;;;4872718;29;20049;-75
2024/03/09 00:23:08;;;;;;;6.97;3.00;;;;;;;;;;4869754;29;20064;-76
2024/03/09 00:25:40;;;;;;;6.45;2.83;;;;;;;;;;4872384;29;20053;-75
2024/03/09 00:28:11;;;;;;;5.00;2.88;;;;;;;;;;4871701;29;20060;-75
2024/03/09 00:30:42;;;;;;;8.00;3.13;;;;;;;;;;4871937;29;20060;-75
2024/03/09 00:33:12;;;;;;;9.13;3.08;;;;;;;;;;4868500;29;20939;-74
2024/03/09 00:35:44;;;;;;;5.20;2.03;;;;;;;;;;4869886;29;20056;-74
2024/03/09 00:38:14;;;;;;;3.50;2.58;;;;;;;;;;4869662;29;20822;-75
2024/03/09 00:40:46;;;;;;;3.88;1.70;;;;;;;;;;4869976;29;20056;-75
2024/03/09 00:43:17;;;;;;;5.28;2.10;;;;;;;;;;4869846;29;20048;-75
2024/03/09 00:45:48;;;;;;;1.73;1.60;;;;;;;;;;4870667;29;20057;-74
2024/03/09 00:48:19;;;;;;;4.07;1.58;;;;;;;;;;4871296;29;21157;-75
2024/03/09 00:50:49;;;;;;;4.53;1.70;;;;;;;;;;4872149;29;20501;-78
2024/03/09 00:53:22;;;;;;;3.72;1.42;;;;;;;;;;4872548;29;20630;-75
2024/03/09 00:55:52;;;;;;;4.10;1.52;;;;;;;;;;4871682;29;20061;-75
2024/03/09 00:58:23;;;;;;;1.83;1.60;;;;;;;;;;4871839;29;20513;-75
2024/03/09 01:00:53;;;;;;;7.72;1.70;;;;;;;;;;4871538;29;20053;-75
2024/03/09 01:03:24;;;;;;;4.47;1.67;;;;;;;;;;4870443;29;20057;-75
2024/03/09 01:05:56;;;;;;;6.22;2.00;;;;;;;;;;4871467;29;20056;-75
2024/03/09 01:08:27;;;;;;;6.50;1.98;;;;;;;;;;4871546;29;20504;-75
2024/03/09 01:10:57;;;;;;;6.07;1.75;;;;;;;;;;4871087;29;20512;-76
2024/03/09 01:13:28;;;;;;;7.82;1.80;;;;;;;;;;4871211;29;20527;-75
2024/03/09 01:15:59;;;;;;;6.97;1.90;;;;;;;;;;4871508;29;20049;-75
2024/03/09 01:18:30;;;;;;;8.55;1.65;;;;;;;;;;4871685;29;20060;-76
2024/03/09 01:21:00;;;;;;;6.43;1.67;;;;;;;;;;4871241;29;20045;-75
2024/03/09 01:23:31;;;;;;;4.85;1.73;;;;;;;;;;4870550;29;20123;-75
2024/03/09 01:26:02;;;;;;;3.70;1.80;;;;;;;;;;4871130;29;20049;-75
2024/03/09 01:28:32;;;;;;;7.18;1.58;;;;;;;;;;4870868;29;20420;-75
2024/03/09 01:31:04;;;;;;;3.38;1.98;;;;;;;;;;4871019;29;20049;-75
2024/03/09 01:33:35;;;;;;;2.00;1.42;;;;;;;;;;4870685;29;20528;-75
2024/03/09 01:36:06;;;;;;;1.80;1.50;;;;;;;;;;4870650;29;20056;-75
2024/03/09 01:38:40;;;;;;;2.97;1.35;;;;;;;;;;4871693;29;20060;-75
2024/03/09 01:41:10;;;;;;;1.67;1.45;;;;;;;;;;4871113;29;20052;-75
2024/03/09 01:43:41;;;;;;;5.03;1.70;;;;;;;;;;4871034;29;20057;-75
2024/03/09 01:46:14;;;;;;;4.20;1.35;;;;;;;;;;4871014;29;20386;-74
2024/03/09 01:48:48;;;;;;;4.70;1.60;;;;;;;;;;4871189;29;20057;-74
2024/03/09 01:51:18;;;;;;;1.77;1.30;;;;;;;;;;4870857;29;20049;-76
2024/03/09 01:53:53;;;;;;;5.32;1.80;;;;;;;;;;4870728;29;20044;-75
2024/03/09 01:56:27;;;;;;;4.60;1.83;;;;;;;;;;4870615;29;20068;-75
2024/03/09 01:58:57;;;;;;;6.13;1.70;;;;;;;;;;4870279;29;20052;-75
2024/03/09 02:01:29;;;;;;;2.63;1.50;;;;;;;;;;4870914;29;20104;-77
2024/03/09 02:04:00;;;;;;;8.45;1.73;;;;;;;;;;4870620;29;20068;-77
2024/03/09 02:06:32;;;;;;;5.85;1.70;;;;;;;;;;4870440;29;20528;-78
2024/03/09 02:09:12;;;;;;;4.78;1.55;;;;;;;;;;4870411;29;20052;-76
2024/03/09 02:11:43;;;;;;;2.78;2.00;;;;;;;;;;4869189;29;20061;-74
2024/03/09 02:14:15;;;;;;;2.97;1.52;;;;;;;;;;4870327;29;20068;-75
2024/03/09 02:16:49;;;;;;;4.43;1.38;;;;;;;;;;4869809;29;20547;-74
2024/03/09 02:19:20;;;;;;;5.70;1.80;;;;;;;;;;4869209;29;20061;-75
2024/03/09 02:21:52;;;;;;;5.07;1.67;;;;;;;;;;4871069;29;20048;-76
2024/03/09 02:24:24;;;;;;;4.85;1.60;;;;;;;;;;4884053;29;20060;-75
2024/03/09 02:26:59;;;;;;;4.22;1.55;;;;;;;;;;4870647;29;20053;-75
2024/03/09 02:29:31;;;;;;;6.82;1.60;;;;;;;;;;4869851;29;20048;-75
2024/03/09 02:32:01;;;;;;;5.60;1.45;;;;;;;;;;4869910;29;20056;-76
2024/03/09 02:34:32;;;;;;;6.22;1.55;;;;;;;;;;4869262;29;20081;-77
2024/03/09 02:37:05;;;;;;;7.43;2.10;;;;;;;;;;4869658;29;20044;-75
2024/03/09 02:39:36;;;;;;;4.38;1.65;;;;;;;;;;4870024;29;20802;-75
2024/03/09 02:42:06;;;;;;;5.70;1.60;;;;;;;;;;4869875;29;20057;-77
2024/03/09 02:44:40;;;;;;;5.47;1.55;;;;;;;;;;4869751;29;20060;-77
2024/03/09 02:47:11;;;;;;;7.00;1.70;;;;;;;;;;4870186;29;20049;-74
2024/03/09 02:49:41;;;;;;;3.35;1.40;;;;;;;;;;4869676;29;20053;-75
2024/03/09 02:52:12;;;;;;;5.10;1.35;;;;;;;;;;4870452;29;20056;-75
2024/03/09 02:54:42;;;;;;;3.75;1.65;;;;;;;;;;4869769;29;20045;-75
2024/03/09 02:57:16;;;;;;;5.30;1.80;;;;;;;;;;4869781;29;20072;-76
2024/03/09 02:59:47;;;;;;;3.47;1.70;;;;;;;;;;4869825;29;20526;-76
2024/03/09 03:05:05;;;;;;;6.07;1.90;;;;;;;;;;4869375;29;20061;-74
2024/03/09 03:07:36;;;;;;;6.47;2.28;;;;;;;;;;4869607;29;20045;-75
2024/03/09 03:10:08;;;;;;;2.88;2.30;;;;;;;;;;4870011;29;20053;-75
2024/03/09 03:12:38;;;;;;;3.15;2.30;;;;;;;;;;4870404;29;20053;-76
2024/03/09 03:15:10;;;;;;;4.15;2.40;;;;;;;;;;4868960;29;20505;-75
2024/03/09 03:17:41;;;;;;;9.25;2.50;;;;;;;;;;4867555;29;20060;-81
2024/03/09 03:20:17;;;;;;;4.85;2.22;;;;;;;;;;4868896;29;20053;-74
2024/03/09 03:22:48;;;;;;;4.50;2.30;;;;;;;;;;4869220;29;20057;-75
2024/03/09 03:25:19;;;;;;;5.63;2.85;;;;;;;;;;4869290;29;20056;-75
2024/03/09 03:27:50;;;;;;;10.15;2.72;;;;;;;;;;4869106;29;20067;-77
2024/03/09 03:30:20;;;;;;;4.22;2.00;;;;;;;;;;4868873;29;20056;-74
2024/03/09 03:32:51;;;;;;;5.65;2.45;;;;;;;;;;4867228;29;20049;-75
2024/03/09 03:35:24;;;;;;;4.13;2.10;;;;;;;;;;4868900;29;20053;-75
2024/03/09 03:37:59;;;;;;;4.38;2.50;;;;;;;;;;4869152;29;20497;-77
2024/03/09 03:40:30;;;;;;;7.55;2.70;;;;;;;;;;4869766;29;20526;-75
2024/03/09 03:43:03;;;;;;;9.30;3.17;;;;;;;;;;4868881;29;20472;-75
2024/03/09 03:45:34;;;;;;;6.32;2.13;;;;;;;;;;4869356;29;20053;-75
2024/03/09 03:48:05;;;;;;;3.55;2.40;;;;;;;;;;4868570;29;20268;-74
2024/03/09 03:50:36;;;;;;;3.38;2.38;;;;;;;;;;4868803;29;20526;-76
2024/03/09 03:53:06;;;;;;;5.85;2.78;;;;;;;;;;4868787;29;20061;-76
2024/03/09 03:55:37;;;;;;;2.47;2.08;;;;;;;;;;4868646;29;20396;-74
2024/03/09 03:58:09;;;;;;;3.17;2.50;;;;;;;;;;4869647;29;20049;-77
2024/03/09 04:00:40;;;;;;;9.80;2.33;;;;;;;;;;4869389;29;20064;-76
2024/03/09 04:03:11;;;;;;;2.92;2.53;;;;;;;;;;4868605;29;20532;-74
2024/03/09 04:05:46;;;;;;;5.90;2.40;;;;;;;;;;4869200;29;20113;-75
2024/03/09 04:08:19;;;;;;;5.50;2.45;;;;;;;;;;4868388;29;20516;-76
2024/03/09 04:10:50;;;;;;;2.63;2.40;;;;;;;;;;4867316;29;20049;-76
2024/03/09 04:13:22;;;;;;;2.67;2.08;;;;;;;;;;4868856;29;20416;-76
2024/03/09 04:15:53;;;;;;;6.00;2.40;;;;;;;;;;4868450;29;20052;-74
2024/03/09 04:18:28;;;;;;;5.93;2.47;;;;;;;;;;4868649;29;20045;-74
2024/03/09 04:21:02;;;;;;;7.60;2.58;;;;;;;;;;4868629;29;20052;-75
2024/03/09 04:23:32;;;;;;;2.75;2.45;;;;;;;;;;4868438;29;20056;-75
2024/03/09 04:26:02;;;;;;;4.63;2.55;;;;;;;;;;4868614;29;20048;-74
2024/03/09 04:28:33;;;;;;;10.93;2.63;;;;;;;;;;4868707;29;20404;-77
2024/03/09 04:31:06;;;;;;;11.32;2.67;;;;;;;;;;4868722;29;20049;-75
2024/03/09 04:33:37;;;;;;;10.57;3.17;;;;;;;;;;4869010;29;20057;-76
2024/03/09 04:36:07;;;;;;;4.00;2.63;;;;;;;;;;4868502;29;20048;-76
2024/03/09 04:38:38;;;;;;;8.07;2.80;;;;;;;;;;4868504;29;20052;-76
2024/03/09 04:41:10;;;;;;;19.95;3.15;;;;;;;;;;4868289;29;20045;-75
2024/03/09 04:43:41;;;;;;;8.80;2.17;;;;;;;;;;4868252;29;20053;-75
2024/03/09 04:46:11;;;;;;;4.32;2.38;;;;;;;;;;4868376;29;20050;-76
2024/03/09 04:48:41;;;;;;;5.75;3.00;;;;;;;;;;4867113;29;20052;-75
2024/03/09 04:51:13;;;;;;;4.78;2.80;;;;;;;;;;4867973;29;20053;-77
2024/03/09 04:53:45;;;;;;;7.15;2.58;;;;;;;;;;4866938;29;20053;-77
2024/03/09 04:56:16;;;;;;;2.88;2.15;;;;;;;;;;4866119;29;20064;-76
2024/03/09 04:58:47;;;;;;;6.30;2.60;;;;;;;;;;4871499;29;20073;-76
2024/03/09 05:01:17;;;;;;;2.17;1.77;;;;;;;;;;4870613;29;20417;-74
2024/03/09 05:03:48;;;;;;;3.65;2.65;;;;;;;;;;4871402;29;20057;-75
2024/03/09 05:06:19;;;;;;;7.88;2.83;;;;;;;;;;4871348;29;20041;-75
2024/03/09 05:08:49;;;;;;;7.00;3.17;;;;;;;;;;4872061;29;20061;-76
2024/03/09 05:11:19;;;;;;;5.95;3.45;;;;;;;;;;4871149;29;20049;-77
2024/03/09 05:13:52;;;;;;;6.03;3.40;;;;;;;;;;4870076;29;20561;-76
2024/03/09 05:16:24;;;;;;;6.65;3.17;;;;;;;;;;4871866;29;20501;-74
2024/03/09 05:18:55;;;;;;;6.22;3.60;;;;;;;;;;4871667;29;20045;-74
2024/03/09 05:21:25;;;;;;;3.63;2.75;;;;;;;;;;4871797;29;20556;-76
2024/03/09 05:23:56;;;;;;;14.27;3.75;;;;;;;;;;4871428;29;20537;-75
2024/03/09 05:26:32;;;;;;;6.75;2.70;;;;;;;;;;4872617;29;20063;-76
2024/03/09 05:29:03;;;;;;;3.85;2.53;;;;;;;;;;4871471;29;20053;-75
2024/03/09 05:31:34;;;;;;;11.77;3.17;;;;;;;;;;4870645;29;20041;-75
2024/03/09 05:34:07;;;;;;;3.95;3.08;;;;;;;;;;4871178;29;20057;-76
2024/03/09 05:36:39;;;;;;;7.60;3.00;;;;;;;;;;4871224;29;20053;-75
2024/03/09 05:39:13;;;;;;;7.55;3.05;;;;;;;;;;4871094;29;20056;-76
2024/03/09 05:41:43;;;;;;;7.78;2.90;;;;;;;;;;4871089;29;20053;-77
2024/03/09 05:44:14;;;;;;;6.25;2.88;;;;;;;;;;4871185;29;20053;-76
2024/03/09 05:46:44;;;;;;;7.50;3.05;;;;;;;;;;4871176;29;20060;-76
2024/03/09 05:49:16;;;;;;;3.63;2.80;;;;;;;;;;4870265;29;20500;-75
2024/03/09 05:51:46;;;;;;;6.45;2.85;;;;;;;;;;4870816;29;20060;-76
2024/03/09 05:54:17;;;;;;;3.05;2.60;;;;;;;;;;4870807;29;20056;-75
2024/03/09 05:56:48;;;;;;;7.78;3.15;;;;;;;;;;4870708;29;20497;-75
2024/03/09 05:59:19;;;;;;;11.23;3.35;;;;;;;;;;4871244;29;20473;-76
2024/03/09 06:01:49;;;;;;;5.95;3.38;;;;;;;;;;4870546;29;20663;-75
2024/03/09 06:04:21;;;;;;;5.07;3.13;;;;;;;;;;4869287;29;20501;-76
2024/03/09 06:06:53;;;;;;;7.65;3.03;;;;;;;;;;4869158;29;20517;-76
2024/03/09 06:09:24;;;;;;;4.40;2.72;;;;;;;;;;4869697;29;20060;-75
2024/03/09 06:11:55;;;;;;;12.38;2.78;;;;;;;;;;4870103;29;20076;-76
2024/03/09 06:14:26;;;;;;;11.73;3.05;;;;;;;;;;4871047;29;20810;-75
2024/03/09 06:16:57;;;;;;;8.95;2.75;;;;;;;;;;4870401;29;20757;-76
2024/03/09 06:19:30;;;;;;;8.40;2.70;;;;;;;;;;4870027;29;20493;-77
2024/03/09 06:22:01;;;;;;;3.35;2.75;;;;;;;;;;4870366;29;20052;-75
2024/03/09 06:24:33;;;;;;;7.88;2.40;;;;;;;;;;4869806;29;20053;-75
2024/03/09 06:27:09;;;;;;;3.25;2.60;;;;;;;;;;4869946;29;20053;-76
2024/03/09 06:29:44;;;;;;;3.50;2.70;;;;;;;;;;4869931;29;20064;-77
2024/03/09 06:32:15;;;;;;;5.72;3.05;;;;;;;;;;4870242;29;20517;-74
2024/03/09 06:34:45;;;;;;;8.77;2.60;;;;;;;;;;4870261;29;20053;-74
2024/03/09 06:37:15;;;;;;;6.25;2.53;;;;;;;;;;4869914;29;20053;-76
2024/03/09 06:39:46;;;;;;;8.88;2.45;;;;;;;;;;4869677;29;20071;-76
2024/03/09 06:42:21;;;;;;;4.65;2.50;;;;;;;;;;4869839;29;20064;-76
2024/03/09 06:44:51;;;;;;;;;;;;;;;;;;4870873;29;20057;-76
2024/03/09 06:47:21;;;;;;;3.20;2.55;;;;;;;;;;4870539;29;19928;-76
2024/03/09 06:49:55;;;;;;;12.57;2.83;;;;;;;;;;4870011;29;20535;-76
2024/03/09 06:52:28;;;;;;;5.05;2.60;;;;;;;;;;4870218;29;20673;-75
2024/03/09 06:54:59;;;;;;;7.13;2.78;;;;;;;;;;4869269;29;20060;-76
2024/03/09 06:57:30;;;;;;;10.88;3.05;;;;;;;;;;4866903;29;20057;-75
2024/03/09 07:00:01;;;;;;;7.40;3.00;;;;;;;;;;4869779;29;20044;-75
2024/03/09 07:02:34;;;;;;;4.03;2.42;;;;;;;;;;4869486;29;20057;-74
2024/03/09 07:05:09;;;;;;;4.97;2.88;;;;;;;;;;4869276;29;20057;-75
2024/03/09 07:07:43;;;;;;;9.23;2.53;;;;;;;;;;4869495;29;20509;-75
2024/03/09 07:10:13;;;;;;;8.55;2.90;;;;;;;;;;4869220;29;20056;-75
2024/03/09 07:12:43;;;;;;;4.88;2.40;;;;;;;;;;4869416;29;20147;-75
2024/03/09 07:15:17;;;;;;;6.47;2.85;;;;;;;;;;4869496;29;20068;-76
2024/03/09 07:17:48;;;;;;;3.75;2.65;;;;;;;;;;4869491;29;20064;-75
2024/03/09 07:20:23;;;;;;;4.15;2.38;;;;;;;;;;4869124;29;20080;-76
2024/03/09 07:22:54;;;;;;;8.82;2.80;;;;;;;;;;4869922;29;20053;-77
2024/03/09 07:25:27;;;;;;;11.55;2.50;;;;;;;;;;4869052;29;20052;-75
2024/03/09 07:27:59;;;;;;;5.10;2.47;;;;;;;;;;4867011;29;20052;-75
2024/03/09 07:30:32;;;;;;;7.43;2.75;;;;;;;;;;4869211;29;20049;-75
2024/03/09 07:33:04;;;;;;;3.35;2.53;;;;;;;;;;4869457;29;20060;-77
2024/03/09 07:35:35;;;;;;;5.97;2.70;;;;;;;;;;4870040;29;20057;-77
2024/03/09 07:38:05;;;;;;;6.65;2.97;;;;;;;;;;4869485;29;20053;-75
2024/03/09 07:40:39;;;;;;;8.02;2.97;;;;;;;;;;4868172;29;20053;-75
2024/03/09 07:43:17;;;;;;;7.18;2.92;;;;;;;;;;4869250;29;20044;-75
2024/03/09 07:45:49;;;;;;;3.15;2.70;;;;;;;;;;4868789;29;20044;-76
2024/03/09 07:48:19;;;;;;;12.18;3.42;;;;;;;;;;4869206;29;20080;-75
2024/03/09 07:50:50;;;;;;;12.20;4.18;;;;;;;;;;4868905;29;20056;-77
2024/03/09 07:53:21;;;;;;;7.70;3.47;;;;;;;;;;4868638;29;20064;-75
2024/03/09 07:55:57;;;;;;;8.68;3.40;;;;;;;;;;4868424;29;20060;-78
2024/03/09 07:58:27;;;;;;;6.38;3.50;;;;;;;;;;4867121;29;20064;-76
2024/03/09 08:00:58;;;;;;;13.38;3.83;;;;;;;;;;4868658;29;20063;-75
2024/03/09 08:03:33;;;;;;;11.27;3.60;;;;;;;;;;4868849;29;20041;-76
2024/03/09 08:06:05;;;;;;;6.55;3.08;;;;;;;;;;4868997;29;20405;-77
2024/03/09 08:08:36;;;;;;;5.53;3.20;;;;;;;;;;4868790;29;20053;-75
2024/03/09 08:11:09;;;;;;;17.05;4.20;;;;;;;;;;4867658;29;20402;-75
2024/03/09 08:13:43;;;;;;;16.65;3.78;;;;;;;;;;4868731;29;20519;-74
2024/03/09 08:16:13;;;;;;;9.10;4.88;;;;;;;;;;4868478;29;20049;-74
2024/03/09 08:18:44;;;;;;;9.20;3.63;;;;;;;;;;4868673;29;20049;-76
2024/03/09 08:21:14;;;;;;;10.25;3.92;;;;;;;;;;4868514;29;20061;-75
2024/03/09 08:23:47;;;;;;;10.00;3.90;;;;;;;;;;4869158;29;20052;-74
2024/03/09 08:26:18;;;;;;;11.27;3.50;;;;;;;;;;4868791;29;20045;-75
2024/03/09 08:28:48;;;;;;;9.23;4.30;;;;;;;;;;4869599;29;20057;-75
2024/03/09 08:31:18;;;;;;;10.32;3.63;;;;;;;;;;4868633;29;20515;-74
2024/03/09 08:33:49;;;;;;;13.93;3.95;;;;;;;;;;4872343;29;20056;-76
2024/03/09 08:36:22;;;;;;;7.50;3.88;;;;;;;;;;4872000;29;20061;-74
2024/03/09 08:38:53;;;;;;;11.02;4.18;;;;;;;;;;4872217;29;20052;-77
2024/03/09 08:41:23;;;;;;;13.90;4.75;;;;;;;;;;4872018;29;20480;-74
2024/03/09 08:43:54;;;;;;;42.88;5.25;;;;;;;;;;4872477;29;20429;-77
2024/03/09 08:46:26;;;;;;;21.85;4.90;;;;;;;;;;4872048;29;20056;-78
2024/03/09 08:48:57;;;;;;;54.00;5.20;;;;;;;;;;4871498;29;20097;-74
2024/03/09 08:51:27;;;;;;;48.08;5.78;;;;;;;;;;4871664;29;20068;-76
2024/03/09 08:53:57;;;;;;;79.85;5.63;;;;;;;;;;4872149;29;20053;-76
2024/03/09 08:56:29;;;;;;;82.15;5.20;;;;;;;;;;4872136;29;20057;-76
2024/03/09 08:59:00;;;;;;;56.08;4.88;;;;;;;;;;4870089;29;20086;-74
2024/03/09 09:01:31;;;;;;;16.27;4.13;;;;;;;;;;4872247;29;20064;-74
2024/03/09 09:04:04;;;;;;;23.10;5.45;;;;;;;;;;4871467;29;20111;-74
2024/03/09 09:06:36;;;;;;;31.10;4.68;;;;;;;;;;4871463;29;20057;-75
2024/03/09 09:09:16;;;;;;;30.92;4.43;;;;;;;;;;4871732;29;20060;-76
2024/03/09 09:11:48;;;;;;;13.77;4.43;;;;;;;;;;4871399;29;20060;-77
2024/03/09 09:14:19;;;;;;;13.02;3.70;;;;;;;;;;4871629;29;20052;-75
2024/03/09 09:16:53;;;;;;;11.05;4.72;;;;;;;;;;4871708;29;20061;-75
2024/03/09 09:19:24;;;;;;;10.13;3.95;;;;;;;;;;4871514;29;20533;-74
2024/03/09 09:21:56;;;;;;;9.10;3.85;;;;;;;;;;4870005;29;20056;-77
2024/03/09 09:24:26;;;;;;;14.38;4.10;;;;;;;;;;4871377;29;20048;-77
2024/03/09 09:26:58;;;;;;;11.48;3.85;;;;;;;;;;4870688;29;20061;-75
2024/03/09 09:29:29;;;;;;;10.82;3.38;;;;;;;;;;4869933;29;20436;-76
2024/03/09 09:32:03;;;;;;;31.05;4.05;;;;;;;;;;4871256;29;20049;-77
2024/03/09 09:34:34;;;;;;;66.70;4.60;;;;;;;;;;4871165;29;20056;-77
2024/03/09 09:37:05;;;;;;;37.03;3.55;;;;;;;;;;4870855;29;20056;-80
2024/03/09 09:39:35;;;;;;;38.42;3.75;;;;;;;;;;4870401;29;20056;-76
2024/03/09 09:42:06;;;;;;;26.98;3.42;;;;;;;;;;4852500;29;20057;-75
2024/03/09 09:44:36;;;;;;;23.10;3.53;;;;;;;;;;4851146;29;20049;-82
2024/03/09 09:47:10;;;;;;;15.57;3.00;;;;;;;;;;4853055;29;20405;-76
2024/03/09 09:49:43;;;;;;;21.25;3.20;;;;;;;;;;4853158;29;20050;-76
2024/03/09 09:52:14;;;;;;;9.10;3.10;;;;;;;;;;4866378;29;20093;-76
2024/03/09 09:54:44;;;;;;;8.02;3.72;;;;;;;;;;4852462;29;20064;-76
2024/03/09 09:57:18;;;;;;;5.43;3.38;;;;;;;;;;4852171;29;20339;-77
2024/03/09 09:59:48;;;;;;;4.35;3.08;;;;;;;;;;4852300;29;20530;-75
2024/03/09 10:02:21;;;;;;;4.40;2.80;;;;;;;;;;4852240;29;20049;-75
2024/03/09 10:04:55;;;;;;;3.90;3.00;;;;;;;;;;4866745;29;20053;-77
2024/03/09 10:07:26;;;;;;;5.57;3.00;;;;;;;;;;4851712;29;20049;-77
2024/03/09 10:09:56;;;;;;;3.28;2.88;;;;;;;;;;4851875;29;20065;-76
2024/03/09 10:12:28;;;;;;;5.88;2.92;;;;;;;;;;4851840;29;20057;-76
2024/03/09 10:15:12;;;;;;;4.20;3.47;;;;;;;;;;4866310;29;20041;-75
2024/03/09 10:17:46;;;;;;;6.53;3.28;;;;;;;;;;4852157;29;20064;-76
2024/03/09 10:20:20;;;;;;;4.07;3.40;;;;;;;;;;4851520;29;20064;-77
2024/03/09 10:22:50;;;;;;;14.63;4.35;;;;;;;;;;4852326;29;20045;-77
2024/03/09 10:25:35;;;;;;;6.03;3.38;;;;;;;;;;4851733;29;20394;-76
2024/03/09 10:28:08;;;;;;;7.07;4.05;;;;;;;;;;4851846;29;20061;-76
2024/03/09 10:30:40;;;;;;;4.97;3.92;;;;;;;;;;4851742;29;20535;-76
2024/03/09 10:33:11;;;;;;;4.38;3.30;;;;;;;;;;4852037;29;20041;-75
2024/03/09 10:35:46;;;;;;;7.18;3.65;;;;;;;;;;4851541;29;20057;-76
2024/03/09 10:38:19;;;;;;;7.43;4.00;;;;;;;;;;4851630;29;20520;-75
2024/03/09 10:40:52;;;;;;;4.00;3.38;;;;;;;;;;4851508;29;20054;-77
2024/03/09 10:43:23;;;;;;;4.85;3.60;;;;;;;;;;4851102;29;20049;-75
2024/03/09 10:45:57;;;;;;;6.45;3.67;;;;;;;;;;4851009;29;20046;-75
2024/03/09 10:48:30;;;;;;;6.43;3.65;;;;;;;;;;4851112;29;20061;-74
2024/03/09 10:51:25;;;;;;;4.95;3.88;;;;;;;;;;4851005;29;20056;-75
2024/03/09 10:54:13;;;;;;;8.57;3.80;;;;;;;;;;4851019;29;20057;-76
2024/03/09 10:56:51;;;;;;;6.18;3.90;;;;;;;;;;4850515;29;20529;-76
2024/03/09 10:59:27;;;;;;;7.30;3.60;;;;;;;;;;4850525;29;20053;-77
2024/03/09 11:02:00;;;;;;;5.47;3.60;;;;;;;;;;4851383;29;20076;-76
2024/03/09 11:04:32;;;;;;;10.00;3.10;;;;;;;;;;4851430;29;20057;-75
2024/03/09 11:07:04;;;;;;;6.70;3.17;;;;;;;;;;4851673;29;20417;-74
2024/03/09 11:09:37;;;;;;;8.93;3.00;;;;;;;;;;4851748;29;20060;-77
2024/03/09 11:12:09;;;;;;;6.65;3.10;;;;;;;;;;4851122;29;20046;-77
2024/03/09 11:14:52;;;;;;;5.55;3.08;;;;;;;;;;4865093;29;20076;-76
2024/03/09 11:17:34;;;;;;;3.90;3.15;;;;;;;;;;4850571;29;20501;-75
2024/03/09 11:20:06;;;;;;;6.72;4.00;;;;;;;;;;4851297;29;20044;-75
2024/03/09 11:22:49;;;;;;;3.75;2.80;;;;;;;;;;4850904;29;20413;-74
2024/03/09 11:25:45;;;;;;;4.70;2.75;;;;;;;;;;4850208;29;20066;-75
2024/03/09 11:28:17;;;;;;;4.18;2.80;;;;;;;;;;4850454;29;20064;-77
2024/03/09 11:31:25;;;;;;;4.15;2.78;;;;;;;;;;4850539;29;20393;-76
2024/03/09 11:34:12;;;;;;;6.25;3.05;;;;;;;;;;4850938;29;20060;-81
2024/03/09 11:36:52;;;;;;;5.93;2.60;;;;;;;;;;4850782;29;20053;-77
2024/03/09 11:39:31;;;;;;;9.32;3.03;;;;;;;;;;4850097;29;20048;-77
2024/03/09 11:42:12;;;;;;;6.53;3.33;;;;;;;;;;4851196;29;20516;-74
2024/03/09 11:44:43;;;;;;;7.78;2.70;;;;;;;;;;4850939;29;20049;-74
2024/03/09 11:47:13;;;;;;;13.75;2.97;;;;;;;;;;4850555;29;20053;-77
2024/03/09 11:49:44;;;;;;;5.50;2.45;;;;;;;;;;4849923;29;20064;-74
2024/03/09 11:52:15;;;;;;;6.35;2.50;;;;;;;;;;4850801;29;20069;-74
2024/03/09 11:54:49;;;;;;;2.17;1.98;;;;;;;;;;4851680;29;20509;-75
2024/03/09 11:57:21;;;;;;;7.63;2.65;;;;;;;;;;4851549;29;20429;-74
2024/03/09 11:59:51;;;;;;;6.60;2.47;;;;;;;;;;4850985;29;20049;-79
2024/03/09 12:02:24;;;;;;;7.85;2.90;;;;;;;;;;4864125;29;20049;-75
2024/03/09 12:04:58;;;;;;;5.53;2.45;;;;;;;;;;4850125;29;20127;-77
2024/03/09 12:07:28;;;;;;;9.07;3.08;;;;;;;;;;4850521;29;20689;-76
2024/03/09 12:10:00;;;;;;;4.40;2.53;;;;;;;;;;4868052;29;20089;-75
2024/03/09 12:12:37;;;;;;;6.10;2.70;;;;;;;;;;4854112;29;20135;-74
2024/03/09 12:15:10;;;;;;;2.92;2.60;;;;;;;;;;4853868;29;20052;-75
2024/03/09 12:17:42;;;;;;;4.15;2.80;;;;;;;;;;4853696;29;20062;-75
2024/03/09 12:20:13;;;;;;;5.05;2.80;;;;;;;;;;4853511;29;20065;-73
2024/03/09 12:22:45;;;;;;;5.07;1.98;;;;;;;;;;4853862;29;20057;-76
2024/03/09 12:25:17;;;;;;;4.53;2.67;;;;;;;;;;4854264;29;20509;-75
2024/03/09 12:27:50;;;;;;;27.52;4.85;;;;;;;;;;4854281;29;20662;-75
2024/03/09 12:30:23;;;;;;;19.38;5.78;;;;;;;;;;4853783;29;20049;-73
2024/03/09 12:32:55;;;;;;;5.38;2.60;;;;;;;;;;4853849;29;20421;-75
2024/03/09 12:35:26;;;;;;;4.75;3.13;;;;;;;;;;4854407;29;20060;-80
2024/03/09 12:37:56;;;;;;;4.93;2.00;;;;;;;;;;4853573;29;20080;-76
2024/03/09 12:40:27;;;;;;;4.10;2.05;;;;;;;;;;4853581;29;20060;-77
2024/03/09 12:43:00;;;;;;;11.90;2.08;;;;;;;;;;4867484;29;20624;-74
2024/03/09 12:45:30;;;;;;;6.38;1.50;;;;;;;;;;4853646;29;20061;-77
2024/03/09 12:48:02;;;;;;;5.22;1.85;;;;;;;;;;4852788;29;20050;-76
2024/03/09 12:50:32;;;;;;;3.83;1.85;;;;;;;;;;4852434;29;20061;-74
2024/03/09 12:53:04;;;;;;;4.80;1.85;;;;;;;;;;4852720;29;20056;-76
2024/03/09 12:55:35;;;;;;;2.20;1.55;;;;;;;;;;4852942;29;20100;-75
2024/03/09 12:58:11;;;;;;;4.82;2.70;;;;;;;;;;4852824;29;20076;-77
2024/03/09 13:00:41;;;;;;;4.03;2.50;;;;;;;;;;4853522;29;20045;-79
2024/03/09 13:03:12;;;;;;;5.93;2.25;;;;;;;;;;4853083;29;20053;-79
2024/03/09 13:05:43;;;;;;;5.13;1.92;;;;;;;;;;4853216;29;20046;-77
2024/03/09 13:08:14;;;;;;;4.35;1.90;;;;;;;;;;4851408;29;20050;-74
2024/03/09 13:10:49;;;;;;;5.15;2.10;;;;;;;;;;4851366;29;20803;-74
2024/03/09 13:13:21;;;;;;;7.60;2.85;;;;;;;;;;4852037;29;20421;-75
2024/03/09 13:15:52;;;;;;;8.30;2.58;;;;;;;;;;4852527;29;20405;-75
2024/03/09 13:18:26;;;;;;;5.05;2.60;;;;;;;;;;4852712;29;20057;-75
2024/03/09 13:20:58;;;;;;;3.20;2.30;;;;;;;;;;4852929;29;20442;-75
2024/03/09 13:23:30;;;;;;;10.00;4.18;;;;;;;;;;4852601;29;20056;-78
2024/03/09 13:26:01;;;;;;;7.30;3.90;;;;;;;;;;4853675;29;20636;-75
2024/03/09 13:28:32;;;;;;;10.27;3.60;;;;;;;;;;4851487;29;20767;-78
2024/03/09 13:31:06;;;;;;;6.65;2.30;;;;;;;;;;4852622;29;20045;-78
2024/03/09 13:33:43;;;;;;;7.68;2.50;;;;;;;;;;4866290;29;20048;-78
2024/03/09 13:36:17;;;;;;;6.93;2.13;;;;;;;;;;4853607;29;20064;-75
2024/03/09 13:38:48;;;;;;;8.40;2.10;;;;;;;;;;4853101;29;20084;-75
2024/03/09 13:41:24;;;;;;;7.30;1.88;;;;;;;;;;4852676;29;20046;-79
2024/03/09 13:43:56;;;;;;;3.30;1.65;;;;;;;;;;4853011;29;20500;-74
2024/03/09 13:46:29;;;;;;;6.05;2.03;;;;;;;;;;4852296;29;20681;-74
2024/03/09 13:49:11;;;;;;;3.22;1.98;;;;;;;;;;4852337;29;20046;-74
2024/03/09 13:51:43;;;;;;;4.43;2.00;;;;;;;;;;4851658;29;20069;-75
2024/03/09 13:54:17;;;;;;;3.92;2.22;;;;;;;;;;4852413;29;20064;-75
2024/03/09 13:56:48;;;;;;;3.45;2.40;;;;;;;;;;4852552;29;20699;-73
2024/03/09 13:59:21;;;;;;;4.32;2.40;;;;;;;;;;4852822;29;20548;-74
2024/03/09 14:01:52;;;;;;;6.00;2.75;;;;;;;;;;4852853;29;20049;-75
2024/03/09 14:04:22;;;;;;;5.88;3.22;;;;;;;;;;4851056;29;20501;-75
2024/03/09 14:06:54;;;;;;;4.57;2.83;;;;;;;;;;4852673;29;20053;-75
2024/03/09 14:09:45;;;;;;;14.48;3.00;;;;;;;;;;4853371;29;20053;-77
2024/03/09 14:12:21;;;;;;;9.63;3.35;;;;;;;;;;4851949;29;20553;-74
2024/03/09 14:14:54;;;;;;;7.25;3.10;;;;;;;;;;4851704;29;20049;-74
2024/03/09 14:17:25;;;;;;;6.30;3.30;;;;;;;;;;4851709;29;20524;-75
2024/03/09 14:19:56;;;;;;;8.95;3.30;;;;;;;;;;4851666;29;20056;-75
2024/03/09 14:22:26;;;;;;;6.60;3.13;;;;;;;;;;4851975;29;20061;-76
2024/03/09 14:25:01;;;;;;;10.40;3.40;;;;;;;;;;4851811;29;20840;-74
2024/03/09 14:27:33;;;;;;;5.68;2.88;;;;;;;;;;4851688;29;20052;-74
2024/03/09 14:30:08;;;;;;;13.50;2.88;;;;;;;;;;4851116;29;20053;-76
2024/03/09 14:32:40;;;;;;;3.33;2.85;;;;;;;;;;4851956;29;20053;-74
2024/03/09 14:35:14;;;;;;;4.57;2.30;;;;;;;;;;4851521;29;20050;-74
2024/03/09 14:37:56;;;;;;;7.63;1.95;;;;;;;;;;4851630;29;20064;-76
2024/03/09 14:40:33;;;;;;;4.32;1.67;;;;;;;;;;4851401;29;20057;-81
2024/03/09 14:43:08;;;;;;;2.38;1.38;;;;;;;;;;4850324;29;21237;-75
2024/03/09 14:45:39;;;;;;;3.55;1.60;;;;;;;;;;4851458;29;20045;-74
2024/03/09 14:48:15;;;;;;;2.92;1.38;;;;;;;;;;4851317;29;20517;-75
2024/03/09 14:50:45;;;;;;;3.83;1.30;;;;;;;;;;4851785;29;20060;-75
2024/03/09 14:53:15;;;;;;;6.47;1.50;;;;;;;;;;4865827;29;20057;-74
2024/03/09 14:55:48;;;;;;;2.70;1.20;;;;;;;;;;4851527;29;20088;-74
2024/03/09 14:58:19;;;;;;;7.32;1.60;;;;;;;;;;4851772;29;20068;-78
2024/03/09 15:00:54;;;;;;;4.20;1.40;;;;;;;;;;4850246;29;20533;-75
2024/03/09 15:05:56;;;;;;;1.80;1.30;;;;;;;;;;4850869;29;20053;-73
2024/03/09 15:08:27;;;;;;;4.82;1.50;;;;;;;;;;4851357;29;20053;-74
2024/03/09 15:11:09;;;;;;;4.25;1.60;;;;;;;;;;4850763;29;20064;-74
2024/03/09 15:13:47;;;;;;;3.72;1.98;;;;;;;;;;4865577;29;20064;-73
2024/03/09 15:16:26;;;;;;;5.70;1.20;;;;;;;;;;4849659;29;20084;-73
2024/03/09 15:18:58;;;;;;;1.80;1.23;;;;;;;;;;4852095;29;20068;-74